Time;durP1;ratioP1;P1;durP2;ratioP2;P2;SDS_P1;SDS_P2;PMS_P1;PMS_P2;Temp;Humidity;BMP_temperature;BMP_pressure;BME280_temperature;BME280_humidity;BME280_pressure;Samples;Min_cycle;Max_cycle;Signal;HPM_P1;HPM_P2
2022/11/13 00:00:35;;;;;;;7.27;6.57;;;;;;;;;;4910330;29;20612;-51
2022/11/13 00:03:01;;;;;;;7.13;6.53;;;;;;;;;;4910354;29;20577;-51
2022/11/13 00:05:27;;;;;;;6.97;6.37;;;;;;;;;;4923537;28;20823;-51
2022/11/13 00:07:53;;;;;;;7.37;6.67;;;;;;;;;;4928009;29;20680;-51
2022/11/13 00:10:19;;;;;;;6.83;6.23;;;;;;;;;;4912412;29;20523;-51
2022/11/13 00:12:45;;;;;;;8.57;7.53;;;;;;;;;;4928111;29;20185;-51
2022/11/13 00:15:11;;;;;;;7.67;6.87;;;;;;;;;;4915661;29;20200;-51
2022/11/13 00:17:37;;;;;;;7.53;6.73;;;;;;;;;;4928529;29;20228;-51
2022/11/13 00:20:04;;;;;;;7.67;6.87;;;;;;;;;;4925173;29;20185;-51
2022/11/13 00:22:30;;;;;;;7.47;6.77;;;;;;;;;;4928499;29;20221;-52
2022/11/13 00:24:56;;;;;;;8.17;7.10;;;;;;;;;;4929359;29;20185;-51
2022/11/13 00:27:22;;;;;;;7.90;7.10;;;;;;;;;;4912262;29;20379;-51
2022/11/13 00:29:48;;;;;;;7.33;6.57;;;;;;;;;;4926282;29;20512;-51
2022/11/13 00:32:14;;;;;;;8.30;7.50;;;;;;;;;;4926115;29;20267;-51
2022/11/13 00:34:40;;;;;;;7.40;6.70;;;;;;;;;;4924907;29;20197;-51
2022/11/13 00:37:06;;;;;;;7.87;7.07;;;;;;;;;;4923535;29;20545;-51
2022/11/13 00:39:32;;;;;;;7.00;6.30;;;;;;;;;;4922397;29;20174;-51
2022/11/13 00:41:58;;;;;;;7.33;6.63;;;;;;;;;;4926282;29;20188;-51
2022/11/13 00:44:24;;;;;;;8.10;7.30;;;;;;;;;;4928903;29;20154;-51
2022/11/13 00:46:50;;;;;;;7.17;6.47;;;;;;;;;;4924602;29;20208;-51
2022/11/13 00:49:16;;;;;;;7.13;6.43;;;;;;;;;;4925757;29;20185;-51
2022/11/13 00:51:42;;;;;;;6.87;6.20;;;;;;;;;;4923005;29;20511;-51
2022/11/13 00:54:08;;;;;;;7.07;6.07;;;;;;;;;;4923586;29;20498;-51
2022/11/13 00:56:34;;;;;;;7.30;6.60;;;;;;;;;;4927138;29;20193;-52
2022/11/13 00:59:00;;;;;;;7.13;6.43;;;;;;;;;;4926322;29;20204;-51
2022/11/13 01:01:27;;;;;;;7.07;6.37;;;;;;;;;;4911939;29;20601;-51
2022/11/13 01:03:53;;;;;;;8.17;6.80;;;;;;;;;;4928568;29;20161;-51
2022/11/13 01:06:20;;;;;;;7.37;6.60;;;;;;;;;;4927027;28;20308;-51
2022/11/13 01:08:46;;;;;;;7.37;6.67;;;;;;;;;;4926699;29;20203;-51
2022/11/13 01:11:14;;;;;;;7.90;7.10;;;;;;;;;;4926084;29;20220;-51
2022/11/13 01:13:40;;;;;;;7.70;6.90;;;;;;;;;;4928260;29;20626;-51
2022/11/13 01:16:08;;;;;;;6.93;6.33;;;;;;;;;;4925029;29;20177;-52
2022/11/13 01:18:34;;;;;;;7.07;6.20;;;;;;;;;;4927225;29;20205;-52
2022/11/13 01:21:20;;;;;;;7.17;6.57;;;;;;;;;;4923502;29;20193;-51
2022/11/13 01:23:46;;;;;;;7.07;6.27;;;;;;;;;;4899043;29;20717;-58
2022/11/13 01:26:20;;;;;;;7.77;7.00;;;;;;;;;;4910223;29;20325;-51
2022/11/13 01:28:46;;;;;;;9.40;7.23;;;;;;;;;;4926711;29;20241;-51
2022/11/13 01:31:20;;;;;;;7.27;6.67;;;;;;;;;;4923597;29;20637;-51
2022/11/13 01:33:47;;;;;;;7.13;6.43;;;;;;;;;;4926405;29;20708;-51
2022/11/13 01:36:16;;;;;;;7.63;6.80;;;;;;;;;;4922558;29;20838;-51
2022/11/13 01:38:42;;;;;;;6.53;5.43;;;;;;;;;;4926244;29;20192;-51
2022/11/13 01:41:10;;;;;;;7.03;5.97;;;;;;;;;;4919751;29;20189;-51
2022/11/13 01:43:37;;;;;;;6.60;6.00;;;;;;;;;;4921378;29;20272;-51
2022/11/13 01:46:06;;;;;;;6.97;6.00;;;;;;;;;;4923338;29;20244;-51
2022/11/13 01:48:35;;;;;;;6.53;5.93;;;;;;;;;;4917270;29;20668;-52
2022/11/13 01:51:02;;;;;;;6.40;5.80;;;;;;;;;;4917750;29;20651;-51
2022/11/13 01:53:28;;;;;;;7.63;6.83;;;;;;;;;;4917514;29;20188;-51
2022/11/13 01:55:54;;;;;;;6.40;5.77;;;;;;;;;;4924753;29;20477;-51
2022/11/13 01:58:20;;;;;;;7.03;6.33;;;;;;;;;;4925670;29;20641;-54
2022/11/13 02:00:46;;;;;;;7.37;6.67;;;;;;;;;;4926335;29;20236;-50
2022/11/13 02:03:13;;;;;;;6.13;5.63;;;;;;;;;;4914130;29;20186;-51
2022/11/13 02:05:39;;;;;;;7.80;6.93;;;;;;;;;;4910496;28;20315;-51
2022/11/13 02:08:05;;;;;;;6.53;5.93;;;;;;;;;;4923974;29;20189;-51
2022/11/13 02:10:31;;;;;;;6.60;6.00;;;;;;;;;;4913052;29;20205;-51
2022/11/13 02:12:57;;;;;;;7.07;6.40;;;;;;;;;;4921582;29;20190;-51
2022/11/13 02:15:24;;;;;;;7.43;5.93;;;;;;;;;;4903870;29;20565;-51
2022/11/13 02:17:58;;;;;;;7.20;6.50;;;;;;;;;;4921262;29;20573;-51
2022/11/13 02:20:32;;;;;;;7.33;6.30;;;;;;;;;;4925649;29;20570;-51
2022/11/13 02:23:07;;;;;;;6.87;6.17;;;;;;;;;;4908198;29;20671;-51
2022/11/13 02:25:34;;;;;;;7.07;6.37;;;;;;;;;;4925674;29;20192;-51
2022/11/13 02:28:00;;;;;;;6.33;5.77;;;;;;;;;;4923266;29;20595;-50
2022/11/13 02:30:27;;;;;;;7.10;6.47;;;;;;;;;;4908444;29;20217;-51
2022/11/13 02:32:55;;;;;;;6.80;6.10;;;;;;;;;;4924344;29;20260;-51
2022/11/13 02:35:24;;;;;;;6.53;5.87;;;;;;;;;;4926087;29;20672;-51
2022/11/13 02:37:50;;;;;;;6.70;5.97;;;;;;;;;;4923556;29;20197;-51
2022/11/13 02:40:17;;;;;;;8.20;6.23;;;;;;;;;;4926535;29;20645;-51
2022/11/13 02:42:43;;;;;;;7.17;6.10;;;;;;;;;;4898736;29;20196;-51
2022/11/13 02:45:09;;;;;;;6.23;5.63;;;;;;;;;;4908200;29;20302;-51
2022/11/13 02:47:35;;;;;;;6.67;5.97;;;;;;;;;;4906470;29;20565;-51
2022/11/13 02:50:01;;;;;;;7.73;5.93;;;;;;;;;;4923926;29;20672;-51
2022/11/13 02:52:29;;;;;;;6.03;5.40;;;;;;;;;;4907521;29;20196;-51
2022/11/13 02:54:55;;;;;;;5.57;4.97;;;;;;;;;;4922265;29;20217;-51
2022/11/13 02:57:27;;;;;;;5.93;5.40;;;;;;;;;;4923723;29;20189;-50
2022/11/13 02:59:53;;;;;;;5.67;5.13;;;;;;;;;;4924771;29;20764;-51
2022/11/13 03:02:19;;;;;;;6.60;5.87;;;;;;;;;;4924262;29;20445;-51
2022/11/13 03:04:45;;;;;;;6.03;5.40;;;;;;;;;;4926592;29;20253;-51
2022/11/13 03:07:12;;;;;;;6.43;5.83;;;;;;;;;;4923024;28;20797;-51
2022/11/13 03:09:38;;;;;;;5.97;5.37;;;;;;;;;;4925822;29;20547;-51
2022/11/13 03:12:04;;;;;;;5.50;5.00;;;;;;;;;;4924604;29;20216;-51
2022/11/13 03:14:30;;;;;;;7.10;6.40;;;;;;;;;;4926179;29;20652;-51
2022/11/13 03:16:56;;;;;;;6.40;5.80;;;;;;;;;;4923630;29;20540;-51
2022/11/13 03:19:22;;;;;;;6.93;5.63;;;;;;;;;;4929134;29;20519;-51
2022/11/13 03:21:49;;;;;;;7.20;5.90;;;;;;;;;;4923819;29;20185;-51
2022/11/13 03:24:15;;;;;;;6.07;5.47;;;;;;;;;;4930166;29;20173;-51
2022/11/13 03:26:41;;;;;;;7.07;5.63;;;;;;;;;;4927742;29;20185;-51
2022/11/13 03:29:07;;;;;;;5.97;5.47;;;;;;;;;;4929873;29;20196;-51
2022/11/13 03:31:33;;;;;;;6.70;5.60;;;;;;;;;;4920528;29;20204;-51
2022/11/13 03:33:59;;;;;;;7.23;5.67;;;;;;;;;;4929320;29;20197;-51
2022/11/13 03:36:25;;;;;;;5.93;5.40;;;;;;;;;;4928187;29;20181;-51
2022/11/13 03:38:51;;;;;;;6.47;5.90;;;;;;;;;;4928087;29;20193;-50
2022/11/13 03:41:17;;;;;;;6.03;5.43;;;;;;;;;;4913794;29;20249;-51
2022/11/13 03:43:43;;;;;;;6.50;5.77;;;;;;;;;;4929636;29;20687;-51
2022/11/13 03:46:09;;;;;;;6.13;5.53;;;;;;;;;;4926987;29;20209;-51
2022/11/13 03:48:35;;;;;;;5.90;5.30;;;;;;;;;;4928735;29;20659;-51
2022/11/13 03:51:02;;;;;;;6.20;5.60;;;;;;;;;;4927823;29;20552;-51
2022/11/13 03:53:28;;;;;;;5.63;5.10;;;;;;;;;;4929281;29;20185;-51
2022/11/13 03:55:54;;;;;;;5.83;4.77;;;;;;;;;;4927720;29;20162;-52
2022/11/13 03:58:20;;;;;;;5.97;5.37;;;;;;;;;;4912361;29;20665;-51
2022/11/13 04:00:47;;;;;;;5.50;5.00;;;;;;;;;;4909010;29;20271;-51
2022/11/13 04:03:13;;;;;;;5.90;5.40;;;;;;;;;;4927041;29;20197;-51
2022/11/13 04:05:39;;;;;;;7.30;5.90;;;;;;;;;;4930561;28;20803;-51
2022/11/13 04:08:05;;;;;;;6.93;5.37;;;;;;;;;;4927435;29;20525;-51
2022/11/13 04:10:31;;;;;;;6.00;5.40;;;;;;;;;;4928862;29;20227;-51
2022/11/13 04:12:57;;;;;;;6.73;5.63;;;;;;;;;;4925216;29;20297;-51
2022/11/13 04:15:23;;;;;;;6.47;5.77;;;;;;;;;;4913657;29;20211;-51
2022/11/13 04:17:49;;;;;;;6.37;5.77;;;;;;;;;;4926348;29;20185;-51
2022/11/13 04:20:16;;;;;;;6.37;5.77;;;;;;;;;;4926777;29;20248;-51
2022/11/13 04:22:42;;;;;;;6.43;5.53;;;;;;;;;;4923469;29;20212;-51
2022/11/13 04:25:08;;;;;;;5.97;5.13;;;;;;;;;;4928220;29;20295;-51
2022/11/13 04:27:34;;;;;;;5.70;5.17;;;;;;;;;;4925501;29;20471;-51
2022/11/13 04:30:00;;;;;;;5.87;5.37;;;;;;;;;;4917483;29;20210;-51
2022/11/13 04:32:26;;;;;;;6.23;5.63;;;;;;;;;;4923170;29;20360;-51
2022/11/13 04:34:59;;;;;;;5.47;4.97;;;;;;;;;;4926542;29;20181;-51
2022/11/13 04:37:25;;;;;;;6.10;5.50;;;;;;;;;;4922844;29;20185;-52
2022/11/13 04:39:51;;;;;;;5.70;4.73;;;;;;;;;;4927500;29;20336;-51
2022/11/13 04:45:02;;;;;;;5.60;5.10;;;;;;;;;;4910402;29;20196;-51
2022/11/13 04:47:28;;;;;;;5.37;4.87;;;;;;;;;;4925390;29;20586;-51
2022/11/13 04:49:54;;;;;;;6.10;5.50;;;;;;;;;;4927570;29;20261;-51
2022/11/13 04:52:20;;;;;;;6.33;5.50;;;;;;;;;;4925710;29;20585;-51
2022/11/13 04:54:46;;;;;;;6.50;5.90;;;;;;;;;;4927102;29;20732;-51
2022/11/13 04:57:12;;;;;;;5.47;4.97;;;;;;;;;;4926862;29;20337;-51
2022/11/13 04:59:38;;;;;;;5.73;5.13;;;;;;;;;;4915643;29;20273;-51
2022/11/13 05:02:04;;;;;;;5.83;5.20;;;;;;;;;;4925904;29;20536;-51
2022/11/13 05:04:30;;;;;;;5.30;4.80;;;;;;;;;;4922560;29;20190;-51
2022/11/13 05:06:56;;;;;;;5.90;4.70;;;;;;;;;;4922442;28;20232;-51
2022/11/13 05:09:22;;;;;;;5.77;5.17;;;;;;;;;;4927707;29;20189;-51
2022/11/13 05:11:48;;;;;;;5.47;4.97;;;;;;;;;;4903763;29;20202;-51
2022/11/13 05:14:14;;;;;;;6.10;5.53;;;;;;;;;;4928469;29;20165;-51
2022/11/13 05:16:40;;;;;;;5.73;5.00;;;;;;;;;;4924652;29;20568;-51
2022/11/13 05:19:06;;;;;;;5.73;5.23;;;;;;;;;;4928707;29;20609;-51
2022/11/13 05:21:36;;;;;;;6.03;5.47;;;;;;;;;;4925297;29;20613;-51
2022/11/13 05:24:03;;;;;;;5.30;4.63;;;;;;;;;;4910755;29;20193;-51
2022/11/13 05:26:29;;;;;;;6.20;5.60;;;;;;;;;;4926634;29;20716;-51
2022/11/13 05:28:58;;;;;;;5.70;5.20;;;;;;;;;;4928133;29;20274;-51
2022/11/13 05:31:25;;;;;;;5.30;4.77;;;;;;;;;;4923692;29;20205;-51
2022/11/13 05:33:51;;;;;;;5.27;4.67;;;;;;;;;;4927138;29;20711;-51
2022/11/13 05:36:18;;;;;;;5.53;5.03;;;;;;;;;;4925417;29;20213;-51
2022/11/13 05:38:44;;;;;;;6.00;5.40;;;;;;;;;;4926257;29;20672;-51
2022/11/13 05:41:20;;;;;;;5.50;5.00;;;;;;;;;;4925781;29;20197;-54
2022/11/13 05:43:46;;;;;;;6.00;5.40;;;;;;;;;;4927729;29;20513;-51
2022/11/13 05:46:14;;;;;;;8.77;8.00;;;;;;;;;;4924864;29;20264;-51
2022/11/13 05:48:40;;;;;;;5.43;4.93;;;;;;;;;;4927196;29;20208;-51
2022/11/13 05:51:07;;;;;;;6.30;5.07;;;;;;;;;;4908048;29;20232;-51
2022/11/13 05:53:34;;;;;;;6.63;5.30;;;;;;;;;;4927158;29;20256;-51
2022/11/13 05:56:01;;;;;;;6.07;5.07;;;;;;;;;;4919228;29;20455;-51
2022/11/13 05:58:27;;;;;;;5.40;4.90;;;;;;;;;;4918245;29;20285;-51
2022/11/13 06:00:54;;;;;;;5.23;4.77;;;;;;;;;;4906310;29;20955;-51
2022/11/13 06:03:20;;;;;;;5.80;4.90;;;;;;;;;;4916640;29;20329;-51
2022/11/13 06:05:46;;;;;;;6.63;5.13;;;;;;;;;;4926073;28;20228;-51
2022/11/13 06:08:12;;;;;;;5.23;4.73;;;;;;;;;;4925480;29;20196;-51
2022/11/13 06:10:38;;;;;;;5.60;4.87;;;;;;;;;;4919808;29;20217;-51
2022/11/13 06:13:04;;;;;;;5.53;5.03;;;;;;;;;;4897673;29;20668;-51
2022/11/13 06:15:30;;;;;;;5.03;4.30;;;;;;;;;;4926061;29;20646;-51
2022/11/13 06:17:56;;;;;;;5.03;4.57;;;;;;;;;;4924087;29;20507;-51
2022/11/13 06:20:22;;;;;;;7.23;6.60;;;;;;;;;;4905144;29;20226;-51
2022/11/13 06:22:48;;;;;;;6.47;4.93;;;;;;;;;;4924423;29;20272;-51
2022/11/13 06:25:14;;;;;;;6.27;5.47;;;;;;;;;;4927583;29;20197;-51
2022/11/13 06:27:40;;;;;;;5.67;4.83;;;;;;;;;;4926039;29;20189;-51
2022/11/13 06:30:07;;;;;;;6.47;5.63;;;;;;;;;;4924580;29;20261;-51
2022/11/13 06:32:33;;;;;;;5.30;4.80;;;;;;;;;;4924493;29;20197;-52
2022/11/13 06:34:59;;;;;;;5.13;4.60;;;;;;;;;;4925069;29;20181;-51
2022/11/13 06:37:25;;;;;;;5.13;4.63;;;;;;;;;;4925153;29;20188;-51
2022/11/13 06:39:51;;;;;;;4.87;4.30;;;;;;;;;;4926766;29;20169;-51
2022/11/13 06:42:17;;;;;;;6.33;5.33;;;;;;;;;;4926450;29;20205;-51
2022/11/13 06:44:43;;;;;;;5.50;4.90;;;;;;;;;;4925231;29;20643;-51
2022/11/13 06:47:09;;;;;;;5.63;5.13;;;;;;;;;;4923208;29;20216;-51
2022/11/13 06:49:35;;;;;;;4.90;4.47;;;;;;;;;;4926684;29;20165;-51
2022/11/13 06:52:01;;;;;;;5.33;4.83;;;;;;;;;;4925005;29;20200;-51
2022/11/13 06:54:27;;;;;;;5.70;5.03;;;;;;;;;;4929405;29;20528;-51
2022/11/13 06:56:53;;;;;;;5.03;4.63;;;;;;;;;;4924982;29;20807;-52
2022/11/13 06:59:19;;;;;;;5.23;4.73;;;;;;;;;;4926707;29;20190;-51
2022/11/13 07:01:45;;;;;;;5.77;5.00;;;;;;;;;;4927644;29;20201;-51
2022/11/13 07:04:12;;;;;;;5.87;5.17;;;;;;;;;;4906074;29;20361;-51
2022/11/13 07:06:38;;;;;;;5.33;4.93;;;;;;;;;;4928227;28;20267;-51
2022/11/13 07:09:04;;;;;;;4.53;4.03;;;;;;;;;;4921703;29;20672;-51
2022/11/13 07:11:30;;;;;;;6.43;5.13;;;;;;;;;;4919570;29;20236;-51
2022/11/13 07:13:56;;;;;;;5.20;4.70;;;;;;;;;;4921999;29;20233;-52
2022/11/13 07:16:22;;;;;;;6.30;4.63;;;;;;;;;;4925581;29;20618;-51
2022/11/13 07:18:52;;;;;;;5.60;4.83;;;;;;;;;;4924351;29;20229;-51
2022/11/13 07:21:18;;;;;;;5.00;4.50;;;;;;;;;;4927690;29;20189;-51
2022/11/13 07:23:46;;;;;;;5.67;5.17;;;;;;;;;;4929942;29;20437;-51
2022/11/13 07:26:13;;;;;;;5.10;4.70;;;;;;;;;;4928503;29;20189;-51
2022/11/13 07:28:39;;;;;;;5.90;5.30;;;;;;;;;;4927057;29;20192;-51
2022/11/13 07:31:05;;;;;;;5.93;5.17;;;;;;;;;;4921797;29;20197;-51
2022/11/13 07:33:31;;;;;;;5.80;5.20;;;;;;;;;;4928582;29;20178;-51
2022/11/13 07:35:58;;;;;;;4.93;4.53;;;;;;;;;;4923890;29;20194;-51
2022/11/13 07:38:24;;;;;;;6.30;4.83;;;;;;;;;;4926163;29;20188;-51
2022/11/13 07:40:50;;;;;;;5.80;5.30;;;;;;;;;;4917628;29;20653;-51
2022/11/13 07:43:17;;;;;;;5.27;4.73;;;;;;;;;;4922254;29;20189;-51
2022/11/13 07:45:43;;;;;;;6.07;5.20;;;;;;;;;;4914648;29;21426;-51
2022/11/13 07:48:09;;;;;;;5.67;5.23;;;;;;;;;;4918520;29;20185;-51
2022/11/13 07:50:36;;;;;;;6.67;4.70;;;;;;;;;;4918487;29;20233;-51
2022/11/13 07:53:03;;;;;;;5.87;5.27;;;;;;;;;;4916861;29;20181;-51
2022/11/13 07:55:36;;;;;;;5.20;4.73;;;;;;;;;;4917737;29;20222;-51
2022/11/13 07:58:03;;;;;;;6.17;4.37;;;;;;;;;;4919603;29;20248;-51
2022/11/13 08:00:31;;;;;;;6.53;5.60;;;;;;;;;;4916327;29;20191;-51
2022/11/13 08:02:58;;;;;;;5.07;4.60;;;;;;;;;;4919105;29;20568;-51
2022/11/13 08:05:24;;;;;;;6.00;4.90;;;;;;;;;;4917799;29;20213;-51
2022/11/13 08:07:51;;;;;;;5.57;5.07;;;;;;;;;;4917333;28;20243;-52
2022/11/13 08:10:17;;;;;;;5.50;4.87;;;;;;;;;;4916150;29;20205;-51
2022/11/13 08:12:44;;;;;;;6.00;5.30;;;;;;;;;;4915170;29;20185;-51
2022/11/13 08:15:10;;;;;;;5.13;4.73;;;;;;;;;;4917021;29;20765;-51
2022/11/13 08:17:37;;;;;;;5.20;4.70;;;;;;;;;;4917945;29;20205;-51
2022/11/13 08:20:03;;;;;;;5.83;5.33;;;;;;;;;;4917972;29;20197;-51
2022/11/13 08:22:30;;;;;;;5.97;5.00;;;;;;;;;;4916340;29;20169;-51
2022/11/13 08:24:56;;;;;;;5.30;4.80;;;;;;;;;;4917691;29;20185;-51
2022/11/13 08:27:23;;;;;;;4.80;4.37;;;;;;;;;;4917917;29;20181;-51
2022/11/13 08:29:50;;;;;;;7.20;4.70;;;;;;;;;;4917155;29;20189;-51
2022/11/13 08:32:16;;;;;;;5.03;4.53;;;;;;;;;;4914980;29;20181;-52
2022/11/13 08:34:42;;;;;;;6.27;4.57;;;;;;;;;;4900143;29;20189;-51
2022/11/13 08:37:09;;;;;;;5.80;5.20;;;;;;;;;;4915045;29;20535;-51
2022/11/13 08:39:35;;;;;;;5.03;4.63;;;;;;;;;;4922295;29;20259;-52
2022/11/13 08:42:01;;;;;;;5.83;5.13;;;;;;;;;;4916590;29;20549;-52
2022/11/13 08:44:27;;;;;;;5.47;4.97;;;;;;;;;;4918192;29;20231;-51
2022/11/13 08:46:53;;;;;;;5.53;4.93;;;;;;;;;;4913119;29;20228;-51
2022/11/13 08:49:19;;;;;;;8.60;5.10;;;;;;;;;;4917130;29;20200;-51
2022/11/13 08:51:46;;;;;;;6.27;5.67;;;;;;;;;;4916909;29;20704;-51
2022/11/13 08:54:19;;;;;;;5.13;4.53;;;;;;;;;;4921281;29;20288;-51
2022/11/13 08:56:47;;;;;;;4.90;4.50;;;;;;;;;;4915864;29;20181;-51
2022/11/13 08:59:14;;;;;;;5.37;4.87;;;;;;;;;;4917667;29;20188;-51
2022/11/13 09:01:40;;;;;;;6.30;5.70;;;;;;;;;;4915360;29;20557;-51
2022/11/13 09:04:06;;;;;;;5.37;4.80;;;;;;;;;;4914541;29;20185;-52
2022/11/13 09:06:38;;;;;;;5.67;4.93;;;;;;;;;;4917406;28;20574;-52
2022/11/13 09:09:05;;;;;;;5.30;4.90;;;;;;;;;;4918096;29;20173;-52
2022/11/13 09:11:31;;;;;;;6.37;4.00;;;;;;;;;;4915428;29;20214;-51
2022/11/13 09:13:57;;;;;;;4.53;4.13;;;;;;;;;;4917129;29;20580;-51
2022/11/13 09:16:23;;;;;;;5.80;4.50;;;;;;;;;;4915603;29;20244;-51
2022/11/13 09:18:50;;;;;;;6.73;4.97;;;;;;;;;;4915982;29;20185;-52
2022/11/13 09:21:16;;;;;;;5.90;5.03;;;;;;;;;;4916370;29;20901;-51
2022/11/13 09:23:42;;;;;;;4.63;4.17;;;;;;;;;;4916953;29;20206;-52
2022/11/13 09:26:08;;;;;;;4.87;4.47;;;;;;;;;;4917261;29;20796;-51
2022/11/13 09:28:34;;;;;;;4.63;4.17;;;;;;;;;;4917514;29;20181;-51
2022/11/13 09:31:03;;;;;;;4.27;3.87;;;;;;;;;;4913614;29;20275;-55
2022/11/13 09:33:29;;;;;;;4.63;4.10;;;;;;;;;;4916150;29;20796;-52
2022/11/13 09:35:55;;;;;;;4.90;4.50;;;;;;;;;;4916563;29;20193;-51
2022/11/13 09:38:21;;;;;;;5.30;4.80;;;;;;;;;;4914868;29;20201;-51
2022/11/13 09:40:54;;;;;;;5.17;4.67;;;;;;;;;;4916146;29;20208;-51
2022/11/13 09:43:32;;;;;;;7.63;5.07;;;;;;;;;;4915447;29;20241;-52
2022/11/13 09:46:00;;;;;;;5.33;4.57;;;;;;;;;;4890851;29;20310;-53
2022/11/13 09:48:37;;;;;;;4.47;4.07;;;;;;;;;;4919418;29;20280;-55
2022/11/13 09:51:11;;;;;;;4.70;4.33;;;;;;;;;;4917244;29;20199;-52
2022/11/13 09:53:38;;;;;;;5.63;4.70;;;;;;;;;;4915891;29;20668;-51
2022/11/13 09:56:04;;;;;;;4.83;4.10;;;;;;;;;;4914840;29;20189;-51
2022/11/13 09:58:43;;;;;;;4.10;3.80;;;;;;;;;;4917126;29;20181;-52
2022/11/13 10:01:15;;;;;;;5.10;4.60;;;;;;;;;;4914174;29;20193;-52
2022/11/13 10:03:46;;;;;;;4.87;4.47;;;;;;;;;;4917780;29;20516;-51
2022/11/13 10:06:31;;;;;;;4.90;4.40;;;;;;;;;;4900601;28;20257;-51
2022/11/13 10:09:11;;;;;;;4.47;4.07;;;;;;;;;;4916293;29;20951;-52
2022/11/13 10:11:46;;;;;;;4.97;4.23;;;;;;;;;;4915891;29;20236;-53
2022/11/13 10:14:19;;;;;;;4.53;4.10;;;;;;;;;;4916600;29;20188;-52
2022/11/13 10:16:49;;;;;;;4.57;4.17;;;;;;;;;;4913437;29;20637;-51
2022/11/13 10:19:31;;;;;;;5.20;4.20;;;;;;;;;;4917143;29;20165;-55
2022/11/13 10:22:09;;;;;;;4.53;4.13;;;;;;;;;;4908797;29;20203;-51
2022/11/13 10:24:39;;;;;;;4.30;3.90;;;;;;;;;;4914554;29;20185;-51
2022/11/13 10:27:08;;;;;;;4.20;3.80;;;;;;;;;;4915782;29;20216;-52
2022/11/13 10:29:34;;;;;;;4.40;4.00;;;;;;;;;;4916636;29;20655;-52
2022/11/13 10:32:14;;;;;;;4.53;3.53;;;;;;;;;;4915589;29;20334;-51
2022/11/13 10:34:40;;;;;;;4.43;4.03;;;;;;;;;;4920493;29;20240;-51
2022/11/13 10:37:16;;;;;;;4.53;4.10;;;;;;;;;;4918208;29;20189;-51
2022/11/13 10:39:43;;;;;;;4.10;3.70;;;;;;;;;;4919048;29;20189;-52
2022/11/13 10:42:48;;;;;;;4.40;4.10;;;;;;;;;;4919790;29;20194;-51
2022/11/13 10:45:18;;;;;;;4.77;3.57;;;;;;;;;;4862076;29;20675;-51
2022/11/13 10:47:48;;;;;;;4.10;3.70;;;;;;;;;;4857995;29;20660;-51
2022/11/13 10:50:24;;;;;;;4.07;3.77;;;;;;;;;;4886950;29;20225;-52
2022/11/13 10:52:51;;;;;;;4.27;3.77;;;;;;;;;;4918405;29;20181;-51
2022/11/13 10:55:24;;;;;;;3.57;3.27;;;;;;;;;;4918206;29;20277;-51
2022/11/13 10:57:57;;;;;;;4.33;3.93;;;;;;;;;;4918864;29;20716;-51
2022/11/13 11:00:34;;;;;;;4.13;3.77;;;;;;;;;;4919407;29;20248;-52
2022/11/13 11:03:00;;;;;;;3.50;3.20;;;;;;;;;;4919232;29;20189;-52
2022/11/13 11:05:26;;;;;;;3.93;3.60;;;;;;;;;;4918927;29;20628;-51
2022/11/13 11:07:53;;;;;;;4.50;3.50;;;;;;;;;;4910223;28;20403;-51
2022/11/13 11:10:22;;;;;;;3.80;3.50;;;;;;;;;;4914311;29;20205;-51
2022/11/13 11:12:55;;;;;;;4.00;3.70;;;;;;;;;;4911617;29;20513;-51
2022/11/13 11:15:23;;;;;;;3.93;3.63;;;;;;;;;;4915156;29;20734;-52
2022/11/13 11:18:00;;;;;;;3.63;3.30;;;;;;;;;;4913455;29;20185;-52
2022/11/13 11:20:32;;;;;;;3.97;3.57;;;;;;;;;;4897093;29;20210;-52
2022/11/13 11:23:02;;;;;;;4.00;3.70;;;;;;;;;;4916102;29;20185;-51
2022/11/13 11:25:35;;;;;;;4.00;3.60;;;;;;;;;;4914758;29;20484;-51
2022/11/13 11:28:05;;;;;;;3.90;3.50;;;;;;;;;;4915572;29;20346;-52
2022/11/13 11:30:36;;;;;;;3.67;3.37;;;;;;;;;;4920218;29;20240;-51
2022/11/13 11:33:14;;;;;;;3.50;3.20;;;;;;;;;;4913691;29;20174;-51
2022/11/13 11:35:53;;;;;;;3.70;3.40;;;;;;;;;;4913309;29;20189;-51
2022/11/13 11:38:36;;;;;;;3.60;3.30;;;;;;;;;;4915623;29;20193;-51
2022/11/13 11:41:08;;;;;;;3.90;3.60;;;;;;;;;;4892140;29;20188;-51
2022/11/13 11:43:39;;;;;;;3.60;3.30;;;;;;;;;;4914197;29;20181;-52
2022/11/13 11:46:05;;;;;;;4.10;3.37;;;;;;;;;;4914767;29;20688;-51
2022/11/13 11:48:31;;;;;;;3.50;3.20;;;;;;;;;;4913521;29;20280;-51
2022/11/13 11:51:03;;;;;;;3.80;3.50;;;;;;;;;;4912590;29;20205;-51
2022/11/13 11:53:55;;;;;;;4.07;3.73;;;;;;;;;;4920597;29;20688;-51
2022/11/13 11:56:27;;;;;;;3.57;3.27;;;;;;;;;;4922594;29;20264;-51
2022/11/13 11:59:04;;;;;;;5.00;3.83;;;;;;;;;;4929151;29;20207;-52
2022/11/13 12:01:43;;;;;;;3.67;3.37;;;;;;;;;;4909593;29;20192;-52
2022/11/13 12:04:29;;;;;;;4.63;3.70;;;;;;;;;;4927771;29;20227;-51
2022/11/13 12:07:14;;;;;;;4.03;3.73;;;;;;;;;;4917801;28;20240;-51
2022/11/13 12:09:44;;;;;;;4.10;3.70;;;;;;;;;;4909330;29;20206;-52
2022/11/13 12:12:30;;;;;;;3.90;3.60;;;;;;;;;;4907899;29;20209;-51
2022/11/13 12:14:56;;;;;;;3.80;3.50;;;;;;;;;;4912276;29;20189;-51
2022/11/13 12:17:26;;;;;;;3.80;3.50;;;;;;;;;;4922886;29;20192;-51
2022/11/13 12:20:02;;;;;;;4.03;3.60;;;;;;;;;;4924369;29;20588;-51
2022/11/13 12:22:45;;;;;;;4.17;3.83;;;;;;;;;;4920002;29;20193;-51
2022/11/13 12:25:12;;;;;;;6.10;4.47;;;;;;;;;;4928317;29;20208;-51
2022/11/13 12:27:43;;;;;;;4.20;3.80;;;;;;;;;;4919811;29;20198;-52
2022/11/13 12:30:13;;;;;;;3.63;3.30;;;;;;;;;;4920286;29;20201;-52
2022/11/13 12:32:49;;;;;;;4.40;3.93;;;;;;;;;;4922260;29;20181;-51
2022/11/13 12:35:23;;;;;;;4.83;3.87;;;;;;;;;;4925466;29;20272;-51
2022/11/13 12:37:52;;;;;;;4.90;4.50;;;;;;;;;;4926883;29;20744;-51
2022/11/13 12:40:22;;;;;;;5.10;4.60;;;;;;;;;;4927895;29;20260;-52
2022/11/13 12:42:50;;;;;;;4.90;4.40;;;;;;;;;;4919660;29;20237;-52
2022/11/13 12:45:21;;;;;;;4.87;4.20;;;;;;;;;;4927758;29;20191;-52
2022/11/13 12:47:48;;;;;;;5.20;4.07;;;;;;;;;;4917919;29;20203;-52
2022/11/13 12:50:24;;;;;;;4.80;4.40;;;;;;;;;;4908819;29;20687;-51
2022/11/13 12:53:02;;;;;;;5.20;4.70;;;;;;;;;;4917598;29;20185;-52
2022/11/13 12:55:29;;;;;;;5.33;4.83;;;;;;;;;;4893809;29;20185;-51
2022/11/13 12:58:08;;;;;;;6.00;5.40;;;;;;;;;;4917846;29;20264;-51
2022/11/13 13:00:35;;;;;;;6.30;5.20;;;;;;;;;;4915022;29;20176;-51
2022/11/13 13:03:22;;;;;;;6.27;5.43;;;;;;;;;;4914387;29;20782;-52
2022/11/13 13:06:04;;;;;;;6.30;5.47;;;;;;;;;;4914369;29;20200;-51
2022/11/13 13:08:49;;;;;;;8.83;5.60;;;;;;;;;;4916965;29;20730;-53
2022/11/13 13:11:47;;;;;;;5.67;5.07;;;;;;;;;;4688010;27;9192477;-57
2022/11/13 13:14:25;;;;;;;6.23;4.93;;;;;;;;;;4990511;28;20187;-58
2022/11/13 13:16:51;;;;;;;8.03;3.63;;;;;;;;;;4986160;28;20186;-56
2022/11/13 13:19:23;;;;;;;7.17;4.07;;;;;;;;;;4986999;28;21517;-56
2022/11/13 13:21:49;;;;;;;6.37;4.50;;;;;;;;;;4984446;28;20185;-56
2022/11/13 13:24:32;;;;;;;5.87;4.20;;;;;;;;;;4988695;28;20191;-57
2022/11/13 13:26:59;;;;;;;4.30;3.90;;;;;;;;;;4997316;28;20171;-57
2022/11/13 13:29:25;;;;;;;4.27;3.87;;;;;;;;;;4992589;28;20282;-55
2022/11/13 13:32:06;;;;;;;5.00;3.97;;;;;;;;;;4999868;28;20571;-55
2022/11/13 13:34:37;;;;;;;15.07;13.70;;;;;;;;;;4989078;28;20192;-57
2022/11/13 13:37:16;;;;;;;5.83;4.83;;;;;;;;;;4989945;28;20838;-57
2022/11/13 13:39:42;;;;;;;5.67;4.70;;;;;;;;;;4988230;28;20220;-55
2022/11/13 13:42:27;;;;;;;5.23;4.07;;;;;;;;;;4990056;28;22053;-56
2022/11/13 13:45:07;;;;;;;5.40;4.47;;;;;;;;;;4993435;28;20185;-57
2022/11/13 13:47:39;;;;;;;5.00;4.40;;;;;;;;;;4994207;28;20210;-59
2022/11/13 13:50:11;;;;;;;6.67;5.20;;;;;;;;;;4984333;28;20253;-59
2022/11/13 13:52:38;;;;;;;5.27;4.33;;;;;;;;;;4989683;28;20183;-59
2022/11/13 13:55:06;;;;;;;4.90;4.50;;;;;;;;;;4993437;28;20273;-59
2022/11/13 13:57:33;;;;;;;5.63;5.13;;;;;;;;;;4981509;28;20248;-59
2022/11/13 13:59:59;;;;;;;4.80;4.10;;;;;;;;;;4978679;28;21528;-59
2022/11/13 14:02:26;;;;;;;5.43;4.87;;;;;;;;;;4977769;28;20248;-58
2022/11/13 14:04:53;;;;;;;5.73;4.80;;;;;;;;;;4980302;28;20187;-58
2022/11/13 14:07:24;;;;;;;5.53;4.53;;;;;;;;;;4980151;28;22236;-58
2022/11/13 14:10:03;;;;;;;7.47;4.50;;;;;;;;;;4998394;28;20222;-55
2022/11/13 14:12:29;;;;;;;5.70;4.73;;;;;;;;;;4999842;28;20266;-57
2022/11/13 14:14:55;;;;;;;4.53;4.07;;;;;;;;;;4997378;28;20183;-56
2022/11/13 14:17:23;;;;;;;4.37;3.97;;;;;;;;;;4995927;28;20178;-57
2022/11/13 14:19:53;;;;;;;4.60;4.20;;;;;;;;;;4999118;28;20183;-57
2022/11/13 14:22:19;;;;;;;6.53;4.73;;;;;;;;;;4987242;28;20185;-57
2022/11/13 14:24:51;;;;;;;6.33;4.37;;;;;;;;;;4986755;28;20194;-57
2022/11/13 14:27:19;;;;;;;5.10;3.80;;;;;;;;;;4990944;28;20270;-57
2022/11/13 14:29:49;;;;;;;4.83;3.97;;;;;;;;;;4993379;28;20238;-57
2022/11/13 14:32:18;;;;;;;5.37;3.97;;;;;;;;;;4989640;28;20179;-57
2022/11/13 14:34:44;;;;;;;4.70;4.17;;;;;;;;;;4993670;28;20868;-57
2022/11/13 14:37:16;;;;;;;5.67;4.23;;;;;;;;;;4991386;28;20195;-57
2022/11/13 14:39:45;;;;;;;8.37;4.70;;;;;;;;;;4992743;28;20575;-57
2022/11/13 14:42:19;;;;;;;4.20;3.70;;;;;;;;;;4987661;28;20968;-58
2022/11/13 14:44:45;;;;;;;4.77;3.77;;;;;;;;;;5001424;28;20186;-57
2022/11/13 14:47:25;;;;;;;4.60;3.57;;;;;;;;;;4997905;28;20354;-56
2022/11/13 14:49:51;;;;;;;7.67;4.07;;;;;;;;;;4989404;28;20249;-56
2022/11/13 14:52:24;;;;;;;5.10;3.97;;;;;;;;;;4999644;28;20187;-56
2022/11/13 14:55:00;;;;;;;4.27;3.83;;;;;;;;;;4987976;28;20184;-56